sensor_id;sensor_type;location;lat;lon;timestamp;P1;durP1;ratioP1;P2;durP2;ratioP2
74788;SDS011;63313;48.258;12.518;2024-01-11T00:01:44;124.47;;;28.610000000000003;;
74788;SDS011;63313;48.258;12.518;2024-01-11T00:07:11;125.73999999999998;;;29.589999999999996;;
74788;SDS011;63313;48.258;12.518;2024-01-11T00:12:38;219.33;;;30.240000000000002;;
74788;SDS011;63313;48.258;12.518;2024-01-11T00:18:05;124.42999999999999;;;29.660000000000004;;
74788;SDS011;63313;48.258;12.518;2024-01-11T00:23:32;118.55;;;30.669999999999998;;
74788;SDS011;63313;48.258;12.518;2024-01-11T00:28:59;155.21999999999997;;;32.42999999999999;;
74788;SDS011;63313;48.258;12.518;2024-01-11T00:34:26;165.04000000000002;;;32.410000000000004;;
74788;SDS011;63313;48.258;12.518;2024-01-11T00:39:53;116.67999999999999;;;29.03;;
74788;SDS011;63313;48.258;12.518;2024-01-11T00:45:21;136.06;;;32.120000000000005;;
74788;SDS011;63313;48.258;12.518;2024-01-11T00:50:48;134.07;;;31.43;;
74788;SDS011;63313;48.258;12.518;2024-01-11T00:56:15;182.04000000000002;;;34.67;;
74788;SDS011;63313;48.258;12.518;2024-01-11T01:01:46;153.97;;;31.359999999999996;;
74788;SDS011;63313;48.258;12.518;2024-01-11T01:07:13;140.33;;;32.410000000000004;;
74788;SDS011;63313;48.258;12.518;2024-01-11T01:12:40;121.87;;;31.609999999999996;;
74788;SDS011;63313;48.258;12.518;2024-01-11T01:18:07;125.6;;;31.590000000000003;;
74788;SDS011;63313;48.258;12.518;2024-01-11T01:23:34;141.24;;;32.14;;
74788;SDS011;63313;48.258;12.518;2024-01-11T01:29:01;123.63;;;31.109999999999996;;
74788;SDS011;63313;48.258;12.518;2024-01-11T01:34:28;123.05;;;33.52;;
74788;SDS011;63313;48.258;12.518;2024-01-11T01:39:55;121.78;;;29.860000000000003;;
74788;SDS011;63313;48.258;12.518;2024-01-11T01:45:22;143.07999999999998;;;34.71999999999999;;
74788;SDS011;63313;48.258;12.518;2024-01-11T01:50:49;132.11999999999998;;;32.21000000000001;;
74788;SDS011;63313;48.258;12.518;2024-01-11T01:56:17;118.41;;;33.349999999999994;;
74788;SDS011;63313;48.258;12.518;2024-01-11T02:01:44;128.23;;;32.94;;
74788;SDS011;63313;48.258;12.518;2024-01-11T02:07:12;115.85999999999999;;;30.74;;
74788;SDS011;63313;48.258;12.518;2024-01-11T02:12:39;153.54000000000002;;;32.400000000000006;;
74788;SDS011;63313;48.258;12.518;2024-01-11T02:18:08;141.77;;;33.0;;
74788;SDS011;63313;48.258;12.518;2024-01-11T02:23:35;127.28000000000002;;;32.4;;
74788;SDS011;63313;48.258;12.518;2024-01-11T02:29:03;126.08;;;31.99;;
74788;SDS011;63313;48.258;12.518;2024-01-11T02:34:30;181.04;;;32.16000000000001;;
74788;SDS011;63313;48.258;12.518;2024-01-11T02:39:57;144.5;;;31.79;;
74788;SDS011;63313;48.258;12.518;2024-01-11T02:45:24;177.26999999999998;;;32.62;;
74788;SDS011;63313;48.258;12.518;2024-01-11T02:50:51;115.53999999999999;;;31.3;;
74788;SDS011;63313;48.258;12.518;2024-01-11T02:56:19;302.6;;;34.53999999999999;;
74788;SDS011;63313;48.258;12.518;2024-01-11T03:01:45;182.04000000000002;;;33.04;;
74788;SDS011;63313;48.258;12.518;2024-01-11T03:07:13;173.69;;;34.2;;
74788;SDS011;63313;48.258;12.518;2024-01-11T03:12:40;155.18;;;32.010000000000005;;
74788;SDS011;63313;48.258;12.518;2024-01-11T03:18:07;142.36;;;30.1;;
74788;SDS011;63313;48.258;12.518;2024-01-11T03:23:34;128.70999999999998;;;31.190000000000005;;
74788;SDS011;63313;48.258;12.518;2024-01-11T03:29:01;176.62000000000003;;;32.14;;
74788;SDS011;63313;48.258;12.518;2024-01-11T03:34:28;123.93999999999998;;;28.71;;
74788;SDS011;63313;48.258;12.518;2024-01-11T03:39:55;127.92;;;30.770000000000003;;
74788;SDS011;63313;48.258;12.518;2024-01-11T03:45:22;138.73;;;31.55;;
74788;SDS011;63313;48.258;12.518;2024-01-11T03:50:49;170.37;;;34.5;;
74788;SDS011;63313;48.258;12.518;2024-01-11T03:56:16;106.41999999999999;;;31.85;;
74788;SDS011;63313;48.258;12.518;2024-01-11T04:01:43;130.56;;;29.7;;
74788;SDS011;63313;48.258;12.518;2024-01-11T04:07:10;109.53;;;30.52;;
74788;SDS011;63313;48.258;12.518;2024-01-11T04:12:37;118.96000000000001;;;31.47;;
74788;SDS011;63313;48.258;12.518;2024-01-11T04:18:04;150.43;;;32.08;;
74788;SDS011;63313;48.258;12.518;2024-01-11T04:23:31;134.14;;;30.95;;
74788;SDS011;63313;48.258;12.518;2024-01-11T04:28:58;118.37;;;30.320000000000004;;
74788;SDS011;63313;48.258;12.518;2024-01-11T04:34:25;121.58;;;28.840000000000003;;
74788;SDS011;63313;48.258;12.518;2024-01-11T04:39:52;172.07;;;31.43;;
74788;SDS011;63313;48.258;12.518;2024-01-11T04:45:19;108.66999999999999;;;30.690000000000005;;
74788;SDS011;63313;48.258;12.518;2024-01-11T04:50:46;97.07;;;28.78;;
74788;SDS011;63313;48.258;12.518;2024-01-11T04:56:14;99.47;;;29.890000000000004;;
74788;SDS011;63313;48.258;12.518;2024-01-11T05:01:41;110.72;;;31.95;;
74788;SDS011;63313;48.258;12.518;2024-01-11T05:07:08;147.11999999999998;;;31.99;;
74788;SDS011;63313;48.258;12.518;2024-01-11T05:12:35;116.8;;;30.57;;
74788;SDS011;63313;48.258;12.518;2024-01-11T05:18:02;104.60999999999999;;;29.77;;
74788;SDS011;63313;48.258;12.518;2024-01-11T05:23:29;101.87;;;30.029999999999994;;
74788;SDS011;63313;48.258;12.518;2024-01-11T05:28:56;109.62;;;30.54;;
74788;SDS011;63313;48.258;12.518;2024-01-11T05:34:23;92.6;;;28.73;;
74788;SDS011;63313;48.258;12.518;2024-01-11T05:39:51;103.83;;;30.47;;
74788;SDS011;63313;48.258;12.518;2024-01-11T05:45:18;91.69;;;27.360000000000003;;
74788;SDS011;63313;48.258;12.518;2024-01-11T05:50:45;102.45;;;29.95;;
74788;SDS011;63313;48.258;12.518;2024-01-11T05:56:12;106.05999999999999;;;29.45;;
74788;SDS011;63313;48.258;12.518;2024-01-11T06:01:40;106.81999999999998;;;28.54;;
74788;SDS011;63313;48.258;12.518;2024-01-11T06:07:07;100.14;;;28.690000000000005;;
74788;SDS011;63313;48.258;12.518;2024-01-11T06:12:34;119.72999999999999;;;31.03;;
74788;SDS011;63313;48.258;12.518;2024-01-11T06:18:01;100.5;;;28.589999999999996;;
74788;SDS011;63313;48.258;12.518;2024-01-11T06:23:28;104.37;;;30.860000000000003;;
74788;SDS011;63313;48.258;12.518;2024-01-11T06:28:55;90.97;;;29.040000000000003;;
74788;SDS011;63313;48.258;12.518;2024-01-11T06:34:22;100.77999999999999;;;29.880000000000003;;
74788;SDS011;63313;48.258;12.518;2024-01-11T06:39:49;101.68;;;29.369999999999997;;
74788;SDS011;63313;48.258;12.518;2024-01-11T06:45:17;97.92999999999999;;;27.01;;
74788;SDS011;63313;48.258;12.518;2024-01-11T06:50:44;98.45;;;28.65;;
74788;SDS011;63313;48.258;12.518;2024-01-11T06:56:13;100.97;;;29.98;;
74788;SDS011;63313;48.258;12.518;2024-01-11T07:01:40;90.03;;;27.580000000000002;;
74788;SDS011;63313;48.258;12.518;2024-01-11T07:07:07;114.42999999999999;;;28.55;;
74788;SDS011;63313;48.258;12.518;2024-01-11T07:12:35;101.35;;;26.95;;
74788;SDS011;63313;48.258;12.518;2024-01-11T07:18:02;95.67;;;27.880000000000003;;
74788;SDS011;63313;48.258;12.518;2024-01-11T07:23:29;94.78999999999999;;;27.360000000000003;;
74788;SDS011;63313;48.258;12.518;2024-01-11T07:28:56;108.21;;;27.779999999999994;;
74788;SDS011;63313;48.258;12.518;2024-01-11T07:34:23;94.53;;;28.509999999999998;;
74788;SDS011;63313;48.258;12.518;2024-01-11T07:39:50;100.78999999999999;;;26.35;;
74788;SDS011;63313;48.258;12.518;2024-01-11T07:45:17;89.92999999999999;;;26.29;;
74788;SDS011;63313;48.258;12.518;2024-01-11T07:50:44;88.92;;;28.139999999999997;;
74788;SDS011;63313;48.258;12.518;2024-01-11T07:56:11;81.11999999999999;;;26.310000000000002;;
74788;SDS011;63313;48.258;12.518;2024-01-11T08:01:38;87.76;;;26.02;;
74788;SDS011;63313;48.258;12.518;2024-01-11T08:07:05;91.66;;;26.48;;
74788;SDS011;63313;48.258;12.518;2024-01-11T08:12:32;71.11;;;25.130000000000003;;
74788;SDS011;63313;48.258;12.518;2024-01-11T08:17:59;83.51999999999998;;;26.139999999999997;;
74788;SDS011;63313;48.258;12.518;2024-01-11T08:23:26;86.8;;;26.68;;
74788;SDS011;63313;48.258;12.518;2024-01-11T08:28:53;83.97;;;27.75;;
74788;SDS011;63313;48.258;12.518;2024-01-11T08:34:21;100.14;;;30.029999999999994;;
74788;SDS011;63313;48.258;12.518;2024-01-11T08:39:48;83.89;;;28.48;;
74788;SDS011;63313;48.258;12.518;2024-01-11T08:45:15;89.35;;;27.910000000000004;;
74788;SDS011;63313;48.258;12.518;2024-01-11T08:50:42;86.41999999999999;;;28.8;;
74788;SDS011;63313;48.258;12.518;2024-01-11T08:56:09;84.92999999999999;;;27.470000000000006;;
74788;SDS011;63313;48.258;12.518;2024-01-11T09:01:36;85.64;;;28.509999999999998;;
74788;SDS011;63313;48.258;12.518;2024-01-11T09:07:03;94.36999999999999;;;28.01;;
74788;SDS011;63313;48.258;12.518;2024-01-11T09:12:30;86.15;;;27.72;;
74788;SDS011;63313;48.258;12.518;2024-01-11T09:17:57;90.36999999999999;;;29.78;;
74788;SDS011;63313;48.258;12.518;2024-01-11T09:23:25;98.24999999999999;;;30.9;;
74788;SDS011;63313;48.258;12.518;2024-01-11T09:28:52;102.22;;;29.790000000000003;;
74788;SDS011;63313;48.258;12.518;2024-01-11T09:34:19;90.83;;;29.4;;
74788;SDS011;63313;48.258;12.518;2024-01-11T09:39:46;87.59;;;29.589999999999996;;
74788;SDS011;63313;48.258;12.518;2024-01-11T09:45:13;83.03999999999999;;;28.1;;
74788;SDS011;63313;48.258;12.518;2024-01-11T09:50:40;78.52;;;27.390000000000004;;
74788;SDS011;63313;48.258;12.518;2024-01-11T09:56:08;83.84;;;28.77;;
74788;SDS011;63313;48.258;12.518;2024-01-11T10:01:35;102.03999999999999;;;30.8;;
74788;SDS011;63313;48.258;12.518;2024-01-11T10:07:03;98.39;;;29.740000000000002;;
74788;SDS011;63313;48.258;12.518;2024-01-11T10:12:31;90.47;;;29.85;;
74788;SDS011;63313;48.258;12.518;2024-01-11T10:17:58;100.26;;;31.68;;
74788;SDS011;63313;48.258;12.518;2024-01-11T10:23:25;101.69;;;29.619999999999997;;
74788;SDS011;63313;48.258;12.518;2024-01-11T10:28:52;100.61;;;32.769999999999996;;
74788;SDS011;63313;48.258;12.518;2024-01-11T10:34:19;96.89000000000001;;;31.660000000000004;;
74788;SDS011;63313;48.258;12.518;2024-01-11T10:39:46;91.44;;;32.1;;
74788;SDS011;63313;48.258;12.518;2024-01-11T10:45:15;105.85999999999999;;;33.36;;
74788;SDS011;63313;48.258;12.518;2024-01-11T10:50:43;103.22;;;33.57;;
74788;SDS011;63313;48.258;12.518;2024-01-11T10:56:10;94.15;;;30.24;;
74788;SDS011;63313;48.258;12.518;2024-01-11T11:01:37;115.02000000000001;;;31.57;;
74788;SDS011;63313;48.258;12.518;2024-01-11T11:07:05;101.43;;;31.660000000000004;;
74788;SDS011;63313;48.258;12.518;2024-01-11T11:12:32;102.22999999999999;;;31.820000000000004;;
74788;SDS011;63313;48.258;12.518;2024-01-11T11:17:59;101.63000000000001;;;30.689999999999998;;
74788;SDS011;63313;48.258;12.518;2024-01-11T11:23:26;105.17999999999999;;;32.15;;
74788;SDS011;63313;48.258;12.518;2024-01-11T11:28:53;88.31;;;29.78;;
74788;SDS011;63313;48.258;12.518;2024-01-11T11:34:21;98.76;;;30.52;;
74788;SDS011;63313;48.258;12.518;2024-01-11T11:40:06;89.21000000000001;;;31.6;;
74788;SDS011;63313;48.258;12.518;2024-01-11T11:45:35;108.74000000000001;;;32.28;;
74788;SDS011;63313;48.258;12.518;2024-01-11T11:51:02;95.03;;;32.540000000000006;;
74788;SDS011;63313;48.258;12.518;2024-01-11T11:56:32;107.69000000000001;;;30.9;;
74788;SDS011;63313;48.258;12.518;2024-01-11T12:02:00;109.02000000000001;;;32.99999999999999;;
74788;SDS011;63313;48.258;12.518;2024-01-11T12:07:27;108.10999999999999;;;33.55;;
74788;SDS011;63313;48.258;12.518;2024-01-11T12:12:55;114.46000000000001;;;34.42;;
74788;SDS011;63313;48.258;12.518;2024-01-11T12:18:22;113.85;;;33.88;;
74788;SDS011;63313;48.258;12.518;2024-01-11T12:23:49;111.33;;;34.89;;
74788;SDS011;63313;48.258;12.518;2024-01-11T12:29:17;109.82000000000001;;;35.63;;
74788;SDS011;63313;48.258;12.518;2024-01-11T12:34:44;114.5;;;35.269999999999996;;
74788;SDS011;63313;48.258;12.518;2024-01-11T12:40:12;116.66;;;34.99;;
74788;SDS011;63313;48.258;12.518;2024-01-11T12:45:39;117.64999999999998;;;36.54;;
74788;SDS011;63313;48.258;12.518;2024-01-11T12:51:06;124.03000000000002;;;37.15;;
74788;SDS011;63313;48.258;12.518;2024-01-11T12:56:33;114.47999999999999;;;35.17;;
74788;SDS011;63313;48.258;12.518;2024-01-11T13:02:00;119.36000000000001;;;34.480000000000004;;
74788;SDS011;63313;48.258;12.518;2024-01-11T13:07:28;118.63999999999999;;;35.36;;
74788;SDS011;63313;48.258;12.518;2024-01-11T13:12:55;127.28;;;37.56;;
74788;SDS011;63313;48.258;12.518;2024-01-11T13:18:22;120.12;;;37.55;;
74788;SDS011;63313;48.258;12.518;2024-01-11T13:23:49;120.45;;;36.160000000000004;;
74788;SDS011;63313;48.258;12.518;2024-01-11T13:29:16;125.45;;;36.81;;
74788;SDS011;63313;48.258;12.518;2024-01-11T13:34:43;131.0;;;37.0;;
74788;SDS011;63313;48.258;12.518;2024-01-11T13:40:11;130.94;;;39.9;;
74788;SDS011;63313;48.258;12.518;2024-01-11T13:45:38;125.03999999999999;;;37.209999999999994;;
74788;SDS011;63313;48.258;12.518;2024-01-11T13:51:05;140.29000000000002;;;38.4;;
74788;SDS011;63313;48.258;12.518;2024-01-11T13:56:32;141.61999999999998;;;37.68;;
74788;SDS011;63313;48.258;12.518;2024-01-11T14:01:59;130.76999999999998;;;37.870000000000005;;
74788;SDS011;63313;48.258;12.518;2024-01-11T14:07:26;134.31;;;38.849999999999994;;
74788;SDS011;63313;48.258;12.518;2024-01-11T14:12:53;138.49;;;39.970000000000006;;
74788;SDS011;63313;48.258;12.518;2024-01-11T14:18:20;145.35;;;39.08;;
74788;SDS011;63313;48.258;12.518;2024-01-11T14:23:47;128.28;;;39.220000000000006;;
74788;SDS011;63313;48.258;12.518;2024-01-11T14:29:14;134.32999999999998;;;36.42;;
74788;SDS011;63313;48.258;12.518;2024-01-11T14:34:41;136.71999999999997;;;38.81;;
74788;SDS011;63313;48.258;12.518;2024-01-11T14:40:09;132.82;;;37.989999999999995;;
74788;SDS011;63313;48.258;12.518;2024-01-11T14:45:36;117.22999999999999;;;36.809999999999995;;
74788;SDS011;63313;48.258;12.518;2024-01-11T14:51:03;120.55999999999999;;;37.06999999999999;;
74788;SDS011;63313;48.258;12.518;2024-01-11T14:56:30;121.46000000000001;;;38.12;;
74788;SDS011;63313;48.258;12.518;2024-01-11T15:01:57;112.53;;;35.019999999999996;;
74788;SDS011;63313;48.258;12.518;2024-01-11T15:07:24;106.33;;;35.67;;
74788;SDS011;63313;48.258;12.518;2024-01-11T15:12:51;106.83;;;30.97;;
74788;SDS011;63313;48.258;12.518;2024-01-11T15:18:18;110.0;;;35.14;;
74788;SDS011;63313;48.258;12.518;2024-01-11T15:23:45;109.65;;;32.86;;
74788;SDS011;63313;48.258;12.518;2024-01-11T15:29:13;103.06000000000002;;;34.39;;
74788;SDS011;63313;48.258;12.518;2024-01-11T15:34:41;109.84;;;34.84;;
74788;SDS011;63313;48.258;12.518;2024-01-11T15:40:08;104.16;;;31.52;;
74788;SDS011;63313;48.258;12.518;2024-01-11T15:45:35;106.13999999999999;;;31.27;;
74788;SDS011;63313;48.258;12.518;2024-01-11T15:51:02;102.71;;;31.24;;
74788;SDS011;63313;48.258;12.518;2024-01-11T15:56:29;112.97999999999999;;;32.57;;
74788;SDS011;63313;48.258;12.518;2024-01-11T16:01:56;116.96;;;37.13;;
74788;SDS011;63313;48.258;12.518;2024-01-11T16:07:24;110.54;;;31.610000000000003;;
74788;SDS011;63313;48.258;12.518;2024-01-11T16:12:51;99.92;;;30.65;;
74788;SDS011;63313;48.258;12.518;2024-01-11T16:18:18;106.07000000000001;;;33.37;;
74788;SDS011;63313;48.258;12.518;2024-01-11T16:23:45;108.72999999999999;;;31.409999999999997;;
74788;SDS011;63313;48.258;12.518;2024-01-11T16:29:12;113.89000000000001;;;32.17;;
74788;SDS011;63313;48.258;12.518;2024-01-11T16:34:39;120.46;;;32.75000000000001;;
74788;SDS011;63313;48.258;12.518;2024-01-11T16:40:07;115.15;;;31.25;;
74788;SDS011;63313;48.258;12.518;2024-01-11T16:45:35;107.9;;;31.51;;
74788;SDS011;63313;48.258;12.518;2024-01-11T16:51:02;104.94000000000001;;;31.809999999999995;;
74788;SDS011;63313;48.258;12.518;2024-01-11T16:56:29;111.37;;;33.17999999999999;;
74788;SDS011;63313;48.258;12.518;2024-01-11T17:01:56;104.96;;;31.860000000000003;;
74788;SDS011;63313;48.258;12.518;2024-01-11T17:07:23;107.38;;;31.790000000000003;;
74788;SDS011;63313;48.258;12.518;2024-01-11T17:12:50;110.8;;;32.29;;
74788;SDS011;63313;48.258;12.518;2024-01-11T17:18:17;117.89000000000001;;;33.95;;
74788;SDS011;63313;48.258;12.518;2024-01-11T17:23:44;119.34;;;33.839999999999996;;
74788;SDS011;63313;48.258;12.518;2024-01-11T17:29:11;113.2;;;32.06;;
74788;SDS011;63313;48.258;12.518;2024-01-11T17:34:39;116.3;;;32.8;;
74788;SDS011;63313;48.258;12.518;2024-01-11T17:40:06;123.19000000000001;;;34.36;;
74788;SDS011;63313;48.258;12.518;2024-01-11T17:45:33;132.28;;;37.15;;
74788;SDS011;63313;48.258;12.518;2024-01-11T17:51:00;121.28999999999999;;;34.82;;
74788;SDS011;63313;48.258;12.518;2024-01-11T17:56:27;106.66;;;31.660000000000004;;
74788;SDS011;63313;48.258;12.518;2024-01-11T18:01:54;107.45;;;29.1;;
74788;SDS011;63313;48.258;12.518;2024-01-11T18:07:21;100.31;;;28.089999999999996;;
74788;SDS011;63313;48.258;12.518;2024-01-11T18:12:48;107.45;;;30.05;;
74788;SDS011;63313;48.258;12.518;2024-01-11T18:18:16;89.16;;;28.919999999999998;;
74788;SDS011;63313;48.258;12.518;2024-01-11T18:23:43;95.47;;;28.839999999999996;;
74788;SDS011;63313;48.258;12.518;2024-01-11T18:29:10;94.08;;;28.73;;
74788;SDS011;63313;48.258;12.518;2024-01-11T18:34:37;90.35999999999999;;;28.5;;
74788;SDS011;63313;48.258;12.518;2024-01-11T18:40:04;84.15;;;27.45;;
74788;SDS011;63313;48.258;12.518;2024-01-11T18:45:32;95.97;;;28.810000000000002;;
74788;SDS011;63313;48.258;12.518;2024-01-11T18:50:59;94.02;;;29.329999999999995;;
74788;SDS011;63313;48.258;12.518;2024-01-11T18:56:27;96.44;;;30.52;;
74788;SDS011;63313;48.258;12.518;2024-01-11T19:01:54;92.2;;;28.370000000000005;;
74788;SDS011;63313;48.258;12.518;2024-01-11T19:07:21;88.03999999999999;;;29.089999999999996;;
74788;SDS011;63313;48.258;12.518;2024-01-11T19:12:48;104.42999999999999;;;30.54;;
74788;SDS011;63313;48.258;12.518;2024-01-11T19:18:15;101.16999999999999;;;30.65;;
74788;SDS011;63313;48.258;12.518;2024-01-11T19:23:42;106.36000000000001;;;30.350000000000005;;
74788;SDS011;63313;48.258;12.518;2024-01-11T19:29:09;107.63;;;30.809999999999995;;
74788;SDS011;63313;48.258;12.518;2024-01-11T19:34:37;91.72999999999999;;;28.35;;
74788;SDS011;63313;48.258;12.518;2024-01-11T19:40:04;96.33;;;31.71;;
74788;SDS011;63313;48.258;12.518;2024-01-11T19:45:31;99.37;;;29.860000000000003;;
74788;SDS011;63313;48.258;12.518;2024-01-11T19:50:58;90.55;;;29.659999999999997;;
74788;SDS011;63313;48.258;12.518;2024-01-11T19:56:25;97.64000000000001;;;29.439999999999998;;
74788;SDS011;63313;48.258;12.518;2024-01-11T20:01:53;94.0;;;27.2;;
74788;SDS011;63313;48.258;12.518;2024-01-11T20:07:20;99.00000000000001;;;28.940000000000005;;
74788;SDS011;63313;48.258;12.518;2024-01-11T20:12:47;105.19000000000001;;;31.090000000000003;;
74788;SDS011;63313;48.258;12.518;2024-01-11T20:18:14;93.72;;;28.060000000000002;;
74788;SDS011;63313;48.258;12.518;2024-01-11T20:23:41;101.37;;;30.6;;
74788;SDS011;63313;48.258;12.518;2024-01-11T20:29:08;92.34;;;28.45;;
74788;SDS011;63313;48.258;12.518;2024-01-11T20:34:35;89.05;;;27.490000000000002;;
74788;SDS011;63313;48.258;12.518;2024-01-11T20:40:02;82.74;;;26.51;;
74788;SDS011;63313;48.258;12.518;2024-01-11T20:45:29;90.16000000000001;;;26.23;;
74788;SDS011;63313;48.258;12.518;2024-01-11T20:50:57;88.89;;;27.589999999999996;;
74788;SDS011;63313;48.258;12.518;2024-01-11T20:56:24;99.32000000000001;;;26.119999999999997;;
74788;SDS011;63313;48.258;12.518;2024-01-11T21:01:51;88.25;;;26.290000000000003;;
74788;SDS011;63313;48.258;12.518;2024-01-11T21:07:18;78.92;;;25.74;;
74788;SDS011;63313;48.258;12.518;2024-01-11T21:12:45;85.52000000000001;;;26.2;;
74788;SDS011;63313;48.258;12.518;2024-01-11T21:18:12;81.27000000000001;;;24.759999999999998;;
74788;SDS011;63313;48.258;12.518;2024-01-11T21:23:39;80.66;;;25.630000000000003;;
74788;SDS011;63313;48.258;12.518;2024-01-11T21:29:06;78.79;;;23.900000000000002;;
74788;SDS011;63313;48.258;12.518;2024-01-11T21:34:33;80.82;;;24.18;;
74788;SDS011;63313;48.258;12.518;2024-01-11T21:40:00;87.77000000000001;;;26.689999999999998;;
74788;SDS011;63313;48.258;12.518;2024-01-11T21:45:27;85.89;;;26.419999999999998;;
74788;SDS011;63313;48.258;12.518;2024-01-11T21:50:55;80.21000000000001;;;26.57;;
74788;SDS011;63313;48.258;12.518;2024-01-11T21:56:22;90.69;;;26.830000000000002;;
74788;SDS011;63313;48.258;12.518;2024-01-11T22:01:49;92.11;;;28.509999999999998;;
74788;SDS011;63313;48.258;12.518;2024-01-11T22:07:16;89.41;;;26.860000000000003;;
74788;SDS011;63313;48.258;12.518;2024-01-11T22:12:43;82.2;;;25.04;;
74788;SDS011;63313;48.258;12.518;2024-01-11T22:18:10;83.66;;;25.229999999999997;;
74788;SDS011;63313;48.258;12.518;2024-01-11T22:23:37;77.11;;;23.79;;
74788;SDS011;63313;48.258;12.518;2024-01-11T22:29:04;81.48;;;24.889999999999997;;
74788;SDS011;63313;48.258;12.518;2024-01-11T22:34:31;82.39000000000001;;;24.860000000000003;;
74788;SDS011;63313;48.258;12.518;2024-01-11T22:39:58;84.7;;;25.17;;
74788;SDS011;63313;48.258;12.518;2024-01-11T22:45:25;83.66;;;25.1;;
74788;SDS011;63313;48.258;12.518;2024-01-11T22:50:52;87.35;;;24.93;;
74788;SDS011;63313;48.258;12.518;2024-01-11T22:56:19;82.82;;;26.360000000000003;;
74788;SDS011;63313;48.258;12.518;2024-01-11T23:01:46;75.19;;;24.749999999999996;;
74788;SDS011;63313;48.258;12.518;2024-01-11T23:07:14;85.8;;;25.839999999999996;;
74788;SDS011;63313;48.258;12.518;2024-01-11T23:12:41;92.15;;;26.110000000000003;;
74788;SDS011;63313;48.258;12.518;2024-01-11T23:18:08;85.59;;;26.75;;
74788;SDS011;63313;48.258;12.518;2024-01-11T23:23:35;82.16;;;25.589999999999996;;
74788;SDS011;63313;48.258;12.518;2024-01-11T23:29:02;81.43000000000002;;;25.869999999999997;;
74788;SDS011;63313;48.258;12.518;2024-01-11T23:34:29;78.23999999999998;;;25.57;;
74788;SDS011;63313;48.258;12.518;2024-01-11T23:39:57;74.82000000000001;;;24.3;;
74788;SDS011;63313;48.258;12.518;2024-01-11T23:45:24;78.03999999999999;;;25.03;;
74788;SDS011;63313;48.258;12.518;2024-01-11T23:50:51;79.08;;;25.03;;
74788;SDS011;63313;48.258;12.518;2024-01-11T23:56:18;79.42999999999999;;;24.959999999999997;;
